Time;durP1;ratioP1;P1;durP2;ratioP2;P2;SDS_P1;SDS_P2;PMS_P1;PMS_P2;Temp;Humidity;BMP_temperature;BMP_pressure;BME280_temperature;BME280_humidity;BME280_pressure;Samples;Min_cycle;Max_cycle;Signal;HPM_P1;HPM_P2
2023/06/10 00:00:52;;;;;;;6.82;4.20;;;;;;;-141.84;54.62;21200.16;4993115;28;20242;-59
2023/06/10 00:03:23;;;;;;;5.55;4.18;;;;;;;-141.84;54.90;21220.47;4991852;28;20295;-60
2023/06/10 00:05:52;;;;;;;4.25;3.80;;;;;;;-141.84;54.96;21175.75;4993370;28;20242;-59
2023/06/10 00:08:20;;;;;;;5.72;4.20;;;;;;;-141.84;54.57;21206.25;4993130;28;20231;-60
2023/06/10 00:10:49;;;;;;;5.95;4.32;;;;;;;-141.84;55.09;21183.88;4993323;28;20231;-60
2023/06/10 00:13:18;;;;;;;6.68;4.50;;;;;;;-141.84;54.83;21200.16;4993182;28;20778;-59
2023/06/10 00:15:46;;;;;;;5.88;4.18;;;;;;;-141.84;54.55;21228.63;4993102;28;20271;-61
2023/06/10 00:18:17;;;;;;;5.82;4.68;;;;;;;-141.84;54.22;21236.75;4991472;28;20258;-58
2023/06/10 00:20:46;;;;;;;4.93;4.40;;;;;;;-141.84;54.23;21246.91;4992976;28;20202;-58
2023/06/10 00:23:14;;;;;;;4.75;3.97;;;;;;;-141.84;54.10;21200.16;4993456;28;20298;-58
2023/06/10 00:25:43;;;;;;;5.53;3.97;;;;;;;-141.84;54.34;21224.56;4993046;28;20290;-59
2023/06/10 00:28:12;;;;;;;7.45;4.40;;;;;;;-141.84;54.97;21200.16;4992695;28;20246;-58
2023/06/10 00:30:40;;;;;;;6.75;4.55;;;;;;;-141.84;55.21;21171.69;4992963;28;20223;-59
2023/06/10 00:33:09;;;;;;;7.00;4.75;;;;;;;-141.84;55.80;21131.03;4992553;28;20239;-59
2023/06/10 00:35:39;;;;;;;6.00;4.45;;;;;;;-141.84;55.76;21141.19;4992588;28;20204;-59
2023/06/10 00:38:08;;;;;;;5.25;4.50;;;;;;;-141.84;56.31;21110.69;4992470;28;20295;-60
2023/06/10 00:40:41;;;;;;;6.35;4.50;;;;;;;-141.84;56.10;21110.69;4992402;28;20727;-59
2023/06/10 00:43:10;;;;;;;5.65;4.30;;;;;;;-141.84;56.64;21104.59;4992434;28;20247;-59
2023/06/10 00:45:38;;;;;;;6.60;4.30;;;;;;;-141.84;56.34;21096.47;4992685;28;20638;-58
2023/06/10 00:48:07;;;;;;;6.32;4.38;;;;;;;-141.84;56.66;21074.09;4991395;28;20613;-58
2023/06/10 00:50:39;;;;;;;6.57;4.70;;;;;;;-141.84;57.22;21057.84;4992302;28;20225;-60
2023/06/10 00:53:10;;;;;;;6.70;4.93;;;;;;;-141.84;57.53;21055.81;4992427;28;20710;-59
2023/06/10 00:55:39;;;;;;;5.55;4.43;;;;;;;-141.84;57.56;21039.53;4992838;28;20294;-58
2023/06/10 00:58:08;;;;;;;7.45;4.55;;;;;;;-141.84;57.22;21027.34;4992510;28;20294;-59
2023/06/10 01:00:36;;;;;;;6.80;4.75;;;;;;;-141.84;57.68;21013.13;4992276;28;20235;-58
2023/06/10 01:03:07;;;;;;;6.13;4.90;;;;;;;-141.84;57.11;21045.63;4991635;28;20203;-59
2023/06/10 01:05:37;;;;;;;6.75;4.68;;;;;;;-141.84;57.58;21011.09;4992463;28;20279;-58
2023/06/10 01:08:18;;;;;;;5.30;4.60;;;;;;;-141.84;57.62;21023.28;4992105;28;20305;-59
2023/06/10 01:10:54;;;;;;;5.90;4.15;;;;;;;-141.84;58.15;21025.31;4991946;28;20670;-58
2023/06/10 01:13:28;;;;;;;5.45;4.80;;;;;;;-141.84;58.00;21021.25;4992100;28;20223;-58
2023/06/10 01:15:57;;;;;;;6.00;5.40;;;;;;;-141.84;58.50;20988.72;4986365;28;20218;-58
2023/06/10 01:18:32;;;;;;;6.43;5.40;;;;;;;-141.84;57.97;21000.91;4972146;28;20726;-58
2023/06/10 01:21:00;;;;;;;8.77;5.22;;;;;;;-141.84;58.68;20970.41;4988993;28;20191;-59
2023/06/10 01:23:30;;;;;;;7.32;5.80;;;;;;;-141.84;58.59;21009.03;4991661;28;20294;-58
2023/06/10 01:26:03;;;;;;;8.10;6.13;;;;;;;-141.84;58.68;20966.34;4991837;28;20287;-59
2023/06/10 01:28:39;;;;;;;7.88;6.70;;;;;;;-141.84;58.95;20966.34;4977345;28;20290;-59
2023/06/10 01:31:14;;;;;;;12.38;7.25;;;;;;;-141.84;58.54;20956.19;4990481;28;20231;-59
2023/06/10 01:33:46;;;;;;;8.43;6.60;;;;;;;-141.84;58.89;20964.31;4952718;29;20215;-59
2023/06/10 01:36:17;;;;;;;9.52;7.10;;;;;;;-141.84;59.30;20958.22;4952758;29;20189;-58
2023/06/10 01:38:48;;;;;;;8.75;7.18;;;;;;;-141.84;59.06;20978.56;4952577;29;20655;-60
2023/06/10 01:41:18;;;;;;;10.00;7.82;;;;;;;-141.84;59.12;20935.88;4953248;29;20272;-58
2023/06/10 01:43:47;;;;;;;8.65;7.63;;;;;;;-141.84;59.84;20903.34;4952427;29;20315;-60
2023/06/10 01:46:19;;;;;;;9.63;7.47;;;;;;;-141.84;59.57;20944.00;4964074;28;20295;-60
2023/06/10 01:48:49;;;;;;;10.68;7.60;;;;;;;-141.84;58.83;20964.31;4971675;28;20212;-60
2023/06/10 01:51:18;;;;;;;8.57;7.75;;;;;;;-141.84;59.08;20931.78;4971734;28;20891;-59
2023/06/10 01:53:47;;;;;;;10.25;7.05;;;;;;;-141.84;59.21;20966.34;4971909;28;20242;-60
2023/06/10 01:56:18;;;;;;;9.02;7.22;;;;;;;-141.84;59.32;20925.69;4971830;28;20204;-58
2023/06/10 01:58:47;;;;;;;8.77;7.03;;;;;;;-141.84;59.72;20919.59;4971653;28;20251;-59
2023/06/10 02:01:16;;;;;;;9.05;7.28;;;;;;;-141.84;60.11;20903.34;4971622;28;20291;-59
2023/06/10 02:03:44;;;;;;;10.75;7.00;;;;;;;-141.84;60.87;20866.75;4971569;28;20247;-59
2023/06/10 02:06:13;;;;;;;7.68;6.82;;;;;;;-141.84;60.40;20948.06;4971749;28;20664;-59
2023/06/10 02:08:41;;;;;;;9.32;6.55;;;;;;;-141.84;61.62;20860.66;4971647;28;20351;-59
2023/06/10 02:11:11;;;;;;;7.15;6.45;;;;;;;-141.84;62.06;20878.94;4971491;28;20792;-58
2023/06/10 02:13:40;;;;;;;7.65;6.68;;;;;;;-141.84;62.63;20854.53;4954620;28;20219;-59
2023/06/10 02:16:09;;;;;;;10.55;6.53;;;;;;;-141.84;62.65;20862.69;4952407;29;20300;-57
2023/06/10 02:18:38;;;;;;;9.00;6.60;;;;;;;-141.84;63.13;20813.88;4952285;29;20354;-58
2023/06/10 02:21:06;;;;;;;7.63;6.82;;;;;;;-141.84;62.84;20858.59;4969834;28;20280;-59
2023/06/10 02:23:35;;;;;;;7.63;6.50;;;;;;;-141.84;63.21;20834.22;4971480;28;20296;-59
2023/06/10 02:26:03;;;;;;;7.65;6.90;;;;;;;-141.84;62.65;20854.53;4971227;28;20247;-59
2023/06/10 02:28:33;;;;;;;6.88;6.25;;;;;;;-141.84;63.35;20826.09;4971067;28;20212;-58
2023/06/10 02:31:02;;;;;;;8.13;7.20;;;;;;;-141.84;63.38;20824.06;4971204;28;20370;-58
2023/06/10 02:33:31;;;;;;;7.60;6.90;;;;;;;-141.84;63.60;20844.38;4970985;28;20638;-58
2023/06/10 02:36:00;;;;;;;8.23;7.18;;;;;;;-141.84;64.48;20820.00;4971210;28;20739;-58
2023/06/10 02:38:29;;;;;;;7.32;6.63;;;;;;;-141.84;64.27;20822.03;4971462;28;20294;-60
2023/06/10 02:40:58;;;;;;;8.77;7.15;;;;;;;-141.84;64.41;20805.75;4971552;28;20295;-58
2023/06/10 02:43:26;;;;;;;8.00;6.75;;;;;;;-141.84;64.12;20850.47;4970884;28;20327;-60
2023/06/10 02:45:56;;;;;;;8.35;6.63;;;;;;;-141.84;64.67;20771.19;4971259;28;20258;-57
2023/06/10 02:48:25;;;;;;;8.70;6.90;;;;;;;-141.84;65.20;20793.56;4970954;28;20231;-59
2023/06/10 02:50:55;;;;;;;7.75;6.47;;;;;;;-141.84;65.08;20805.75;4971284;28;20230;-59
2023/06/10 02:53:24;;;;;;;9.25;6.90;;;;;;;-141.84;65.91;20807.78;4971337;28;20200;-58
2023/06/10 02:55:52;;;;;;;9.65;6.70;;;;;;;-141.84;65.67;20791.53;4971261;28;20314;-58
2023/06/10 02:58:22;;;;;;;7.00;6.30;;;;;;;-141.84;66.56;20785.44;4970554;28;20702;-59
2023/06/10 03:00:50;;;;;;;7.68;6.22;;;;;;;-141.84;67.63;20714.28;4970928;28;20679;-58
2023/06/10 03:03:22;;;;;;;8.20;6.32;;;;;;;-141.84;68.10;20720.38;4970948;28;20294;-59
2023/06/10 03:05:50;;;;;;;8.23;6.57;;;;;;;-141.84;68.27;20736.63;4971243;28;20412;-58
2023/06/10 03:08:19;;;;;;;7.03;6.30;;;;;;;-141.84;68.46;20777.28;4966879;28;20248;-59
2023/06/10 03:10:47;;;;;;;8.18;6.53;;;;;;;-141.84;68.80;20765.09;4953238;28;20318;-58
2023/06/10 03:13:16;;;;;;;6.65;6.15;;;;;;;-141.84;69.50;20722.41;4955718;29;20296;-59
2023/06/10 03:15:45;;;;;;;7.75;6.80;;;;;;;-141.84;69.43;20706.16;4955223;29;20225;-58
2023/06/10 03:18:14;;;;;;;10.27;6.63;;;;;;;-141.84;69.99;20746.81;4955376;29;20208;-59
2023/06/10 03:20:45;;;;;;;7.60;6.72;;;;;;;-141.84;70.93;20712.25;4972286;28;20204;-60
2023/06/10 03:23:13;;;;;;;6.55;5.95;;;;;;;-141.84;71.94;20659.38;4974689;28;20189;-59
2023/06/10 03:25:42;;;;;;;7.20;6.15;;;;;;;-141.84;71.29;20695.97;4974390;28;20208;-59
2023/06/10 03:28:11;;;;;;;11.20;6.32;;;;;;;-141.84;72.00;20695.97;4975166;28;20239;-58
2023/06/10 03:30:39;;;;;;;8.95;6.88;;;;;;;-141.84;72.73;20665.50;4974160;28;20271;-58
2023/06/10 03:33:08;;;;;;;7.00;6.30;;;;;;;-141.84;73.52;20643.13;4974485;28;20214;-59
2023/06/10 03:35:36;;;;;;;7.60;6.85;;;;;;;-141.84;73.75;20616.69;4974469;28;20204;-59
2023/06/10 03:38:06;;;;;;;10.40;7.18;;;;;;;-141.84;73.52;20647.19;4974274;28;20514;-59
2023/06/10 03:40:35;;;;;;;9.70;6.80;;;;;;;-141.84;73.89;20651.25;4974523;28;20291;-58
2023/06/10 03:43:03;;;;;;;7.60;6.78;;;;;;;-141.84;73.94;20649.22;4974101;28;20667;-58
2023/06/10 03:45:32;;;;;;;7.47;6.35;;;;;;;-141.84;73.11;20657.34;4973941;28;20242;-59
2023/06/10 03:48:01;;;;;;;8.70;6.68;;;;;;;-141.84;73.11;20704.13;4974471;28;20208;-59
2023/06/10 03:50:29;;;;;;;8.32;6.45;;;;;;;-141.84;73.45;20651.25;4974154;28;20205;-60
2023/06/10 03:52:58;;;;;;;8.57;7.05;;;;;;;-141.84;73.05;20671.59;4973804;28;20612;-59
2023/06/10 03:55:28;;;;;;;7.22;6.60;;;;;;;-141.84;73.06;20700.03;4974010;28;20742;-59
2023/06/10 03:57:58;;;;;;;9.88;6.85;;;;;;;-141.84;72.85;20665.50;4974011;28;20588;-58
2023/06/10 04:00:26;;;;;;;7.55;6.18;;;;;;;-141.84;73.65;20663.47;4973958;28;20199;-59
2023/06/10 04:02:57;;;;;;;7.22;6.47;;;;;;;-141.84;72.73;20706.16;4973882;28;20232;-57
2023/06/10 04:05:28;;;;;;;7.95;6.20;;;;;;;-141.84;72.64;20720.38;4973698;28;20652;-60
2023/06/10 04:07:57;;;;;;;6.88;6.28;;;;;;;-141.84;71.58;20736.63;4973932;28;20552;-59
2023/06/10 04:10:25;;;;;;;10.75;7.03;;;;;;;-141.84;71.48;20712.25;4973406;28;20224;-59
2023/06/10 04:12:55;;;;;;;7.30;6.60;;;;;;;-141.84;72.27;20714.28;4974006;28;20239;-58
2023/06/10 04:15:24;;;;;;;10.05;6.88;;;;;;;-141.84;71.44;20720.38;4973459;28;20254;-58
2023/06/10 04:17:52;;;;;;;10.70;7.07;;;;;;;-141.84;71.83;20714.28;4973575;28;20263;-58
2023/06/10 04:20:22;;;;;;;11.52;7.18;;;;;;;-141.84;71.36;20724.44;4973740;28;20254;-58
2023/06/10 04:22:50;;;;;;;7.07;6.38;;;;;;;-141.84;71.05;20765.09;4973595;28;20242;-59
2023/06/10 04:25:19;;;;;;;8.43;6.78;;;;;;;-141.84;71.37;20702.09;4974082;28;20204;-58
2023/06/10 04:27:48;;;;;;;9.80;7.03;;;;;;;-141.84;71.26;20722.41;4973700;28;20664;-58
2023/06/10 04:30:18;;;;;;;7.80;6.32;;;;;;;-141.84;70.98;20728.50;4973331;28;20254;-59
2023/06/10 04:32:47;;;;;;;7.47;6.43;;;;;;;-141.84;70.78;20767.13;4973542;28;20208;-58
2023/06/10 04:35:17;;;;;;;8.02;6.60;;;;;;;-141.84;70.64;20736.63;4973682;28;20216;-59
2023/06/10 04:37:46;;;;;;;9.48;6.30;;;;;;;-141.84;70.49;20756.97;4973395;28;20240;-58
2023/06/10 04:40:15;;;;;;;7.50;6.40;;;;;;;-141.84;70.17;20765.09;4973531;28;20236;-58
2023/06/10 04:42:44;;;;;;;9.07;6.50;;;;;;;-141.84;69.17;20781.38;4973364;28;20204;-59
2023/06/10 04:45:12;;;;;;;8.45;6.63;;;;;;;-141.84;68.17;20852.50;4986693;28;20652;-58
2023/06/10 04:47:43;;;;;;;9.55;7.13;;;;;;;-141.84;68.15;20889.09;4992752;28;20282;-59
2023/06/10 04:50:12;;;;;;;9.45;6.95;;;;;;;-141.84;67.71;21013.13;4992836;28;20291;-59
2023/06/10 04:52:41;;;;;;;7.07;6.38;;;;;;;-141.84;62.28;21324.19;4992786;28;20219;-58
2023/06/10 04:55:10;;;;;;;6.68;5.15;;;;;;;-141.84;54.52;21797.94;4992716;28;20208;-60
2023/06/10 04:57:39;;;;;;;8.30;5.80;;;;;;;-141.84;50.64;22113.13;4992360;28;20249;-59
2023/06/10 05:00:09;;;;;;;7.05;4.68;;;;;;;-141.84;48.67;22334.78;4992285;28;20214;-59
2023/06/10 05:02:38;;;;;;;6.40;4.93;;;;;;;-141.84;45.99;22629.66;4972951;28;20287;-59
2023/06/10 05:05:08;;;;;;;7.32;5.00;;;;;;;-141.84;44.98;22776.09;4973093;28;20214;-59
2023/06/10 05:07:37;;;;;;;5.47;4.97;;;;;;;-141.84;43.35;22938.81;4972743;28;20184;-59
2023/06/10 05:10:06;;;;;;;6.07;5.25;;;;;;;-141.84;43.37;22987.63;4972904;28;20291;-60
2023/06/10 05:12:35;;;;;;;5.97;4.68;;;;;;;-141.84;42.82;23164.59;4972637;28;20242;-59
2023/06/10 05:15:04;;;;;;;7.03;5.10;;;;;;;-141.84;43.83;22861.53;4972714;28;20239;-59
2023/06/10 05:17:32;;;;;;;8.77;5.40;;;;;;;-141.84;42.74;22983.56;4972639;28;20312;-59
2023/06/10 05:20:01;;;;;;;6.60;5.30;;;;;;;-141.84;42.87;23083.25;4972751;28;20196;-59
2023/06/10 05:22:31;;;;;;;6.68;5.35;;;;;;;-141.84;43.17;23005.94;4972613;28;20299;-58
2023/06/10 05:24:59;;;;;;;8.18;5.60;;;;;;;-141.84;43.52;22855.44;4972632;28;20238;-59
2023/06/10 05:27:28;;;;;;;5.88;5.38;;;;;;;-141.84;43.37;22922.56;4972552;28;20663;-59
2023/06/10 05:29:56;;;;;;;6.25;5.50;;;;;;;-141.84;43.99;22790.34;4972309;28;20236;-59
2023/06/10 05:32:25;;;;;;;5.57;4.90;;;;;;;-141.84;44.69;22786.28;4972239;28;20294;-59
2023/06/10 05:34:53;;;;;;;7.68;6.00;;;;;;;-141.84;44.33;22782.22;4972294;28;20212;-58
2023/06/10 05:37:22;;;;;;;7.78;5.95;;;;;;;-141.84;45.23;22656.13;4972525;28;20295;-59
2023/06/10 05:39:52;;;;;;;11.02;6.85;;;;;;;-141.84;47.40;22273.78;4972591;28;20291;-59
2023/06/10 05:42:20;;;;;;;10.20;6.13;;;;;;;-141.84;49.87;22035.84;4972107;28;20196;-59
2023/06/10 05:44:49;;;;;;;8.45;7.00;;;;;;;-141.84;52.36;21816.22;4982142;28;20234;-58
2023/06/10 05:47:17;;;;;;;8.02;6.78;;;;;;;-141.84;53.84;21692.19;4991731;28;20282;-59
2023/06/10 05:49:48;;;;;;;7.45;6.55;;;;;;;-141.84;56.25;21564.09;4991699;28;20323;-59
2023/06/10 05:52:16;;;;;;;9.07;7.55;;;;;;;-141.84;57.60;21452.25;4991644;28;20208;-59
2023/06/10 05:54:45;;;;;;;9.82;7.25;;;;;;;-141.84;58.30;21427.88;4991333;28;20217;-58
2023/06/10 05:57:15;;;;;;;8.65;7.03;;;;;;;-141.84;58.24;21411.59;4985444;28;20299;-62
2023/06/10 05:59:43;;;;;;;8.63;6.70;;;;;;;-141.84;58.68;21415.66;4971739;28;20751;-58
2023/06/10 06:02:12;;;;;;;10.13;7.68;;;;;;;-141.84;58.27;21464.47;4972051;28;20235;-58
2023/06/10 06:04:40;;;;;;;11.13;7.72;;;;;;;-141.84;58.56;21456.34;4971995;28;20227;-58
2023/06/10 06:07:09;;;;;;;10.52;7.60;;;;;;;-141.84;58.90;21423.81;4971190;28;20211;-60
2023/06/10 06:09:37;;;;;;;10.23;7.78;;;;;;;-141.84;58.38;21442.09;4971558;28;20231;-60
2023/06/10 06:12:07;;;;;;;11.00;7.68;;;;;;;-141.84;58.24;21472.59;4971336;28;20312;-59
2023/06/10 06:14:40;;;;;;;8.98;7.65;;;;;;;-141.84;58.82;21413.63;4971365;28;20200;-59
2023/06/10 06:17:08;;;;;;;9.43;7.60;;;;;;;-141.84;58.69;21472.59;4971509;28;20267;-59
2023/06/10 06:19:37;;;;;;;9.15;7.15;;;;;;;-141.84;58.77;21442.09;4971291;28;20223;-59
2023/06/10 06:22:06;;;;;;;10.02;7.93;;;;;;;-141.84;58.30;21474.63;4971768;28;20637;-60
2023/06/10 06:24:34;;;;;;;8.55;7.72;;;;;;;-141.84;58.97;21472.59;4971688;28;20634;-61
2023/06/10 06:27:03;;;;;;;10.88;8.10;;;;;;;-141.84;58.55;21521.41;4971237;28;20683;-59
2023/06/10 06:29:32;;;;;;;10.88;8.00;;;;;;;-141.84;58.11;21568.16;4971635;28;20205;-58
2023/06/10 06:32:02;;;;;;;10.15;7.90;;;;;;;-141.84;57.90;21553.94;4971417;28;20247;-59
2023/06/10 06:34:31;;;;;;;8.82;7.63;;;;;;;-141.84;57.72;21582.38;4971744;28;20287;-59
2023/06/10 06:37:00;;;;;;;9.05;8.15;;;;;;;-141.84;57.86;21555.97;4972005;28;20289;-60
2023/06/10 06:39:28;;;;;;;11.70;7.97;;;;;;;-141.84;57.48;21574.25;4971508;28;20204;-59
2023/06/10 06:41:57;;;;;;;10.98;7.97;;;;;;;-141.84;57.46;21564.09;4971325;28;20295;-59
2023/06/10 06:44:25;;;;;;;10.15;8.38;;;;;;;-141.84;58.40;21531.56;4978055;28;20322;-59
2023/06/10 06:46:54;;;;;;;12.93;8.77;;;;;;;-141.84;58.96;21503.09;4994072;28;20298;-59
2023/06/10 06:49:23;;;;;;;10.07;8.68;;;;;;;-141.84;59.07;21521.41;4994550;28;20290;-59
2023/06/10 06:51:52;;;;;;;11.73;8.68;;;;;;;-141.84;59.13;21505.13;4995009;28;20290;-59
2023/06/10 06:54:20;;;;;;;8.88;7.93;;;;;;;-141.84;59.35;21529.53;4982179;28;20213;-57
2023/06/10 06:56:49;;;;;;;9.10;8.25;;;;;;;-141.84;58.68;21541.72;4975207;28;20200;-58
2023/06/10 06:59:19;;;;;;;11.25;8.02;;;;;;;-141.84;59.11;21582.38;4975044;28;20204;-59
2023/06/10 07:01:47;;;;;;;10.20;8.63;;;;;;;-141.84;58.68;21600.69;4974734;28;20667;-59
2023/06/10 07:04:17;;;;;;;11.95;8.32;;;;;;;-141.84;57.93;21641.34;4974484;28;20223;-58
2023/06/10 07:06:46;;;;;;;11.70;8.75;;;;;;;-141.84;58.23;21623.06;4974661;28;20235;-58
2023/06/10 07:09:15;;;;;;;10.07;8.80;;;;;;;-141.84;58.75;21545.78;4974771;28;20211;-58
2023/06/10 07:11:43;;;;;;;9.35;8.43;;;;;;;-141.84;59.37;21555.97;4975125;28;20632;-59
2023/06/10 07:14:12;;;;;;;13.63;9.02;;;;;;;-141.84;59.14;21545.78;4974894;28;20234;-59
2023/06/10 07:16:40;;;;;;;10.38;9.18;;;;;;;-141.84;59.10;21531.56;4968953;28;20247;-58
2023/06/10 07:19:09;;;;;;;10.15;8.10;;;;;;;-141.84;59.60;21592.56;4956768;28;20212;-59
2023/06/10 07:21:37;;;;;;;10.57;9.32;;;;;;;-141.84;59.53;21580.34;4974822;28;20299;-59
2023/06/10 07:24:08;;;;;;;10.65;9.10;;;;;;;-141.84;58.51;21594.59;4974480;28;20204;-59
2023/06/10 07:26:36;;;;;;;11.50;9.38;;;;;;;-141.84;57.92;21602.72;4974632;28;20184;-58
2023/06/10 07:29:05;;;;;;;11.05;9.57;;;;;;;-141.84;57.90;21570.19;4974416;28;20702;-58
2023/06/10 07:31:33;;;;;;;10.35;9.25;;;;;;;-141.84;58.30;21608.81;4974740;28;20306;-59
2023/06/10 07:34:02;;;;;;;15.25;10.32;;;;;;;-141.84;58.07;21667.78;4974290;28;20799;-60
2023/06/10 07:36:30;;;;;;;10.55;9.55;;;;;;;-141.84;58.00;21673.88;4974860;28;20238;-60
2023/06/10 07:38:59;;;;;;;10.80;9.75;;;;;;;-141.84;57.64;21690.16;4974810;28;20219;-61
2023/06/10 07:41:29;;;;;;;11.38;10.23;;;;;;;-141.84;56.95;21704.38;4974654;28;20642;-62
2023/06/10 07:43:57;;;;;;;11.68;10.30;;;;;;;-141.84;57.13;21667.78;4977395;28;20306;-61
2023/06/10 07:46:27;;;;;;;12.18;10.15;;;;;;;-141.84;57.76;21651.53;4993858;28;20265;-59
2023/06/10 07:48:55;;;;;;;11.18;9.98;;;;;;;-141.84;57.97;21627.13;4993731;28;20266;-61
2023/06/10 07:51:24;;;;;;;11.20;10.10;;;;;;;-141.84;57.92;21686.09;4974706;28;20347;-60
2023/06/10 07:53:52;;;;;;;12.25;10.98;;;;;;;-141.84;58.63;21635.25;4974397;28;20282;-59
2023/06/10 07:56:21;;;;;;;11.13;9.95;;;;;;;-141.84;57.25;21663.72;4973467;28;20204;-59
2023/06/10 07:58:51;;;;;;;11.77;10.57;;;;;;;-141.84;57.90;21647.47;4974150;28;20240;-61
2023/06/10 08:01:20;;;;;;;11.40;9.60;;;;;;;-141.84;57.91;21675.94;4973604;28;20608;-59
2023/06/10 08:03:48;;;;;;;10.32;9.40;;;;;;;-141.84;57.90;21712.53;4973767;28;20287;-60
2023/06/10 08:06:17;;;;;;;11.80;9.75;;;;;;;-141.84;57.03;21728.78;4974025;28;20200;-61
2023/06/10 08:08:46;;;;;;;10.25;9.25;;;;;;;-141.84;57.52;21751.16;4973689;28;20295;-60
2023/06/10 08:11:15;;;;;;;10.88;9.85;;;;;;;-141.84;57.30;21726.75;4973634;28;20204;-59
2023/06/10 08:13:43;;;;;;;11.23;10.13;;;;;;;-141.84;56.91;21745.06;4962122;28;20464;-60
2023/06/10 08:16:13;;;;;;;13.77;9.93;;;;;;;-141.84;56.89;21771.50;4954575;29;20215;-61
2023/06/10 08:18:42;;;;;;;12.20;9.98;;;;;;;-141.84;57.16;21757.25;4955756;28;20208;-60
2023/06/10 08:21:10;;;;;;;13.98;10.25;;;;;;;-141.84;57.15;21785.72;4974042;28;20362;-60
2023/06/10 08:23:39;;;;;;;13.20;9.55;;;;;;;-141.84;56.42;21828.44;4973896;28;20259;-59
2023/06/10 08:26:08;;;;;;;12.02;10.30;;;;;;;-141.84;56.84;21771.50;4973260;28;20234;-59
2023/06/10 08:28:37;;;;;;;12.25;11.10;;;;;;;-141.84;56.93;21757.25;4973764;28;20251;-58
2023/06/10 08:31:05;;;;;;;11.77;10.63;;;;;;;-141.84;57.00;21753.19;4973054;28;20445;-60
2023/06/10 08:33:35;;;;;;;14.13;11.05;;;;;;;-141.84;57.53;21694.22;4973130;28;20224;-58
2023/06/10 08:36:04;;;;;;;12.70;10.07;;;;;;;-141.84;57.78;21702.34;4973654;28;20236;-59
2023/06/10 08:38:33;;;;;;;10.65;9.55;;;;;;;-141.84;57.75;21761.31;4973091;28;20235;-59
2023/06/10 08:41:06;;;;;;;11.88;10.55;;;;;;;-141.84;56.75;21810.13;4972874;28;20189;-58
2023/06/10 08:43:40;;;;;;;11.93;10.63;;;;;;;-141.84;56.72;21771.50;4973446;28;20438;-60
2023/06/10 08:46:10;;;;;;;12.70;9.98;;;;;;;-141.84;57.35;21785.72;4985715;28;20295;-59
2023/06/10 08:48:44;;;;;;;11.18;10.00;;;;;;;-141.84;57.04;21795.88;4973029;28;20231;-59
2023/06/10 08:51:14;;;;;;;10.15;9.23;;;;;;;-141.84;56.20;21812.16;4973421;28;20188;-59
2023/06/10 08:54:00;;;;;;;10.30;9.30;;;;;;;-141.84;56.64;21846.72;4973356;28;20264;-59
2023/06/10 08:56:31;;;;;;;12.65;9.93;;;;;;;-141.84;55.94;21893.50;4973108;28;20196;-59
2023/06/10 08:59:00;;;;;;;10.45;9.35;;;;;;;-141.84;55.45;21924.00;4973088;28;20533;-59
2023/06/10 09:01:29;;;;;;;11.50;9.98;;;;;;;-141.84;55.35;21911.78;4972753;28;20235;-59
2023/06/10 09:04:00;;;;;;;10.30;9.40;;;;;;;-141.84;56.08;21885.38;4972345;28;20289;-60
2023/06/10 09:06:29;;;;;;;10.30;9.32;;;;;;;-141.84;55.47;21930.09;4972654;28;20224;-60
2023/06/10 09:08:59;;;;;;;11.82;10.07;;;;;;;-141.84;55.21;21942.31;4969387;28;20204;-60
2023/06/10 09:11:32;;;;;;;10.65;9.65;;;;;;;-141.84;55.10;21954.50;4967129;28;20335;-59
2023/06/10 09:14:00;;;;;;;10.20;9.25;;;;;;;-141.84;55.02;21968.72;4972065;28;20306;-61
2023/06/10 09:16:30;;;;;;;10.63;9.57;;;;;;;-141.84;54.63;21980.94;4972270;28;20588;-60
2023/06/10 09:19:00;;;;;;;13.25;9.85;;;;;;;-141.84;54.86;21995.16;4960873;28;20661;-61
2023/06/10 09:21:29;;;;;;;10.30;9.30;;;;;;;-141.84;54.83;22005.34;4976177;28;20242;-60
2023/06/10 09:23:57;;;;;;;10.68;9.63;;;;;;;-141.84;54.07;22033.81;4980564;28;20262;-58
2023/06/10 09:26:29;;;;;;;16.52;9.57;;;;;;;-141.84;54.04;22098.88;4971712;28;20212;-59
2023/06/10 09:29:04;;;;;;;12.45;10.05;;;;;;;-141.84;53.98;22041.94;4972477;28;20255;-60
2023/06/10 09:31:35;;;;;;;11.68;9.88;;;;;;;-141.84;54.05;22054.13;4972902;28;20306;-60
2023/06/10 09:34:10;;;;;;;12.52;9.60;;;;;;;-141.84;54.14;22098.88;4972994;28;20205;-59
2023/06/10 09:36:39;;;;;;;13.02;9.90;;;;;;;-141.84;53.29;22135.47;4972538;28;20192;-60
2023/06/10 09:39:16;;;;;;;10.30;9.40;;;;;;;-141.84;53.18;22182.25;4973001;28;20307;-60
2023/06/10 09:41:46;;;;;;;11.25;10.20;;;;;;;-141.84;53.29;22176.16;4972058;28;20636;-59
2023/06/10 09:44:15;;;;;;;10.38;9.48;;;;;;;-141.84;52.52;22200.56;4976473;28;20235;-61
2023/06/10 09:46:47;;;;;;;10.48;9.40;;;;;;;-141.84;52.94;22198.53;4990936;28;20266;-59
2023/06/10 09:49:17;;;;;;;12.07;10.02;;;;;;;-141.84;52.66;22216.81;4991661;28;20267;-59
2023/06/10 09:51:52;;;;;;;9.82;8.95;;;;;;;-141.84;51.92;22255.47;4991600;28;20192;-59
2023/06/10 09:54:21;;;;;;;10.70;9.60;;;;;;;-141.84;51.92;22281.91;4975327;28;20223;-59
2023/06/10 09:56:52;;;;;;;10.60;9.55;;;;;;;-141.84;52.49;22308.34;4971572;28;20645;-60
2023/06/10 09:59:31;;;;;;;10.65;9.75;;;;;;;-141.84;51.88;22330.72;4971737;28;20641;-60
2023/06/10 10:02:00;;;;;;;11.32;10.00;;;;;;;-141.84;51.38;22367.31;4971709;28;20206;-59
2023/06/10 10:04:30;;;;;;;10.93;9.88;;;;;;;-141.84;49.82;22450.69;4971734;28;20200;-60
2023/06/10 10:06:59;;;;;;;10.57;9.68;;;;;;;-141.84;49.46;22450.69;4970759;28;20199;-59
2023/06/10 10:09:28;;;;;;;11.35;10.15;;;;;;;-141.84;49.95;22430.38;4971985;28;20299;-59
2023/06/10 10:11:58;;;;;;;11.50;10.50;;;;;;;-141.84;49.73;22487.31;4971581;28;20244;-59
2023/06/10 10:14:28;;;;;;;10.98;10.00;;;;;;;-141.84;49.43;22466.97;4971917;28;20579;-60
2023/06/10 10:16:58;;;;;;;10.75;9.85;;;;;;;-141.84;49.28;22483.25;4972136;28;20235;-59
2023/06/10 10:19:32;;;;;;;11.80;10.70;;;;;;;-141.84;49.69;22489.34;4971561;28;20191;-60
2023/06/10 10:22:07;;;;;;;10.68;9.68;;;;;;;-141.84;49.28;22513.75;4971469;28;20279;-59
2023/06/10 10:24:40;;;;;;;11.13;10.02;;;;;;;-141.84;47.79;22611.38;4971401;28;20185;-58
2023/06/10 10:27:14;;;;;;;10.73;9.73;;;;;;;-141.84;47.68;22647.97;4971617;28;20188;-60
2023/06/10 10:29:47;;;;;;;11.82;10.63;;;;;;;-141.84;47.17;22770.00;4971471;28;20204;-59
2023/06/10 10:32:17;;;;;;;11.23;10.32;;;;;;;-141.84;46.86;22745.59;4971184;28;20202;-60
2023/06/10 10:35:01;;;;;;;11.75;10.65;;;;;;;-141.84;46.93;22759.84;4970665;28;20688;-59
2023/06/10 10:37:30;;;;;;;10.73;9.82;;;;;;;-141.84;46.30;22749.66;4971503;28;20216;-59
2023/06/10 10:39:59;;;;;;;10.30;9.45;;;;;;;-141.84;45.75;22784.25;4968785;28;20299;-60
2023/06/10 10:42:28;;;;;;;11.02;10.02;;;;;;;-141.84;45.76;22786.28;4965500;28;20255;-60
2023/06/10 10:44:58;;;;;;;10.82;9.90;;;;;;;-141.84;45.28;22761.88;4966637;28;20236;-60
2023/06/10 10:47:30;;;;;;;10.82;9.93;;;;;;;-141.84;45.56;22729.34;4966968;28;20240;-59
2023/06/10 10:50:00;;;;;;;11.85;10.80;;;;;;;-141.84;46.43;22692.72;4965666;28;20200;-59
2023/06/10 10:52:55;;;;;;;10.88;9.98;;;;;;;-141.84;46.49;22733.41;4969474;28;20211;-58
2023/06/10 10:55:25;;;;;;;11.30;10.20;;;;;;;-141.84;46.03;22765.94;4968996;28;20219;-59
2023/06/10 10:57:58;;;;;;;11.35;10.35;;;;;;;-141.84;45.76;22796.44;4969905;28;20223;-59
2023/06/10 11:00:30;;;;;;;10.95;10.05;;;;;;;-141.84;45.99;22765.94;4962977;28;20251;-59
2023/06/10 11:03:01;;;;;;;11.63;10.52;;;;;;;-141.84;45.41;22835.09;4969772;28;20204;-59
2023/06/10 11:05:39;;;;;;;10.43;9.52;;;;;;;-141.84;45.57;22816.78;4969462;28;20275;-59
2023/06/10 11:08:08;;;;;;;10.60;9.60;;;;;;;-141.84;45.23;22851.38;4968645;28;20247;-59
2023/06/10 11:10:37;;;;;;;10.25;9.45;;;;;;;-141.84;45.50;22806.63;4968986;28;20196;-60
2023/06/10 11:13:08;;;;;;;10.40;9.57;;;;;;;-141.84;45.29;22831.03;4968912;28;20534;-59
2023/06/10 11:15:44;;;;;;;10.88;9.88;;;;;;;-141.84;44.89;22916.44;4962633;28;20304;-60
2023/06/10 11:18:21;;;;;;;11.23;10.23;;;;;;;-141.84;45.17;22892.03;4969941;28;20200;-59
2023/06/10 11:20:59;;;;;;;11.10;10.20;;;;;;;-141.84;44.86;22973.41;4969942;28;20260;-59
2023/06/10 11:23:33;;;;;;;11.23;10.32;;;;;;;-141.84;44.57;23012.06;4969701;28;20734;-59